Time;durP1;ratioP1;P1;durP2;ratioP2;P2;SDS_P1;SDS_P2;PMS_P1;PMS_P2;Temp;Humidity;BMP_temperature;BMP_pressure;BME280_temperature;BME280_humidity;BME280_pressure;Samples;Min_cycle;Max_cycle;Signal;HPM_P1;HPM_P2
2023/10/06 00:01:00;;;;;;;11.55;6.00;;;;;;;10.89;100.00;102525.50;5022173;28;20022;-77
2023/10/06 00:03:25;;;;;;;11.13;5.80;;;;;;;10.85;100.00;102514.19;5042773;28;20044;-77
2023/10/06 00:05:53;;;;;;;15.18;6.20;;;;;;;10.85;100.00;102514.19;5025379;28;20541;-77
2023/10/06 00:08:22;;;;;;;11.88;5.70;;;;;;;10.83;100.00;102507.25;5042687;28;20049;-77
2023/10/06 00:10:54;;;;;;;12.88;6.60;;;;;;;10.80;100.00;102518.53;5027180;28;20106;-77
2023/10/06 00:13:28;;;;;;;13.65;5.57;;;;;;;10.79;100.00;102524.63;5044357;28;20462;-77
2023/10/06 00:15:55;;;;;;;13.68;6.55;;;;;;;10.77;100.00;102516.78;5027267;28;20076;-77
2023/10/06 00:18:23;;;;;;;13.38;6.07;;;;;;;10.76;100.00;102514.19;5044224;28;20041;-77
2023/10/06 00:20:49;;;;;;;10.65;5.68;;;;;;;10.74;100.00;102514.16;5028102;28;20025;-77
2023/10/06 00:23:22;;;;;;;11.40;5.70;;;;;;;10.78;100.00;102520.25;5044982;28;20029;-77
2023/10/06 00:25:52;;;;;;;10.02;5.60;;;;;;;10.74;100.00;102519.38;5029732;28;20030;-77
2023/10/06 00:28:28;;;;;;;15.25;6.53;;;;;;;10.75;100.00;102522.84;5045111;28;20122;-77
2023/10/06 00:30:56;;;;;;;8.70;5.60;;;;;;;10.71;100.00;102513.28;5030027;28;20025;-77
2023/10/06 00:33:37;;;;;;;14.77;6.05;;;;;;;10.70;100.00;102522.84;5038725;28;20060;-77
2023/10/06 00:36:16;;;;;;;10.88;5.88;;;;;;;10.70;100.00;102525.47;5026043;28;20058;-77
2023/10/06 00:38:46;;;;;;;11.05;5.13;;;;;;;10.68;100.00;102513.28;5023557;28;20167;-77
2023/10/06 00:41:14;;;;;;;8.93;5.70;;;;;;;10.64;100.00;102507.19;5031551;28;20073;-77
2023/10/06 00:43:43;;;;;;;11.60;5.68;;;;;;;10.64;100.00;102507.19;5029324;28;20121;-77
2023/10/06 00:46:16;;;;;;;9.55;5.63;;;;;;;10.63;100.00;102517.63;5026273;28;20021;-77
2023/10/06 00:48:44;;;;;;;11.65;5.90;;;;;;;10.61;100.00;102514.13;5033193;28;20049;-77
2023/10/06 00:51:19;;;;;;;13.05;6.00;;;;;;;10.60;100.00;102505.44;5023719;28;20354;-77
2023/10/06 00:53:48;;;;;;;11.50;5.82;;;;;;;10.54;100.00;102503.69;5020424;28;20026;-77
2023/10/06 00:56:16;;;;;;;10.98;5.88;;;;;;;10.54;100.00;102505.41;5023981;28;20049;-77
2023/10/06 00:58:42;;;;;;;8.65;5.10;;;;;;;10.52;100.00;102504.53;5020162;28;20100;-77
2023/10/06 01:01:12;;;;;;;15.60;6.13;;;;;;;10.52;100.00;102504.53;5023361;28;20055;-77
2023/10/06 01:03:38;;;;;;;12.30;6.13;;;;;;;10.50;100.00;102503.69;5045317;28;20025;-77
2023/10/06 01:06:12;;;;;;;10.80;6.57;;;;;;;10.49;100.00;102502.78;5021894;28;20021;-77
2023/10/06 01:08:38;;;;;;;11.13;5.53;;;;;;;10.46;100.00;102487.16;5047782;28;20430;-77
2023/10/06 01:11:11;;;;;;;15.27;6.43;;;;;;;10.46;100.00;102484.53;5020540;28;20112;-77
2023/10/06 01:13:51;;;;;;;10.73;5.80;;;;;;;10.48;100.00;102485.41;5045414;28;20048;-77
2023/10/06 01:16:17;;;;;;;11.00;6.10;;;;;;;10.42;100.00;102477.56;5017546;28;20063;-77
2023/10/06 01:18:42;;;;;;;11.20;6.63;;;;;;;10.44;100.00;102473.22;5045960;28;20109;-77
2023/10/06 01:21:17;;;;;;;9.00;6.28;;;;;;;10.42;100.00;102474.94;5026276;28;20097;-77
2023/10/06 01:23:49;;;;;;;14.32;6.45;;;;;;;10.32;100.00;102457.53;5045538;28;20041;-77
2023/10/06 01:26:14;;;;;;;12.55;5.82;;;;;;;10.35;100.00;102464.50;5025498;28;20029;-78
2023/10/06 01:28:45;;;;;;;10.82;6.20;;;;;;;10.38;100.00;102464.50;5045649;28;20108;-77
2023/10/06 01:31:12;;;;;;;11.93;6.25;;;;;;;10.39;100.00;102474.94;5029164;28;20546;-77
2023/10/06 01:33:37;;;;;;;13.93;6.07;;;;;;;10.36;100.00;102474.91;5034707;28;20065;-77
2023/10/06 01:36:04;;;;;;;14.50;6.45;;;;;;;10.35;100.00;102485.34;5014105;28;20030;-77
2023/10/06 01:38:29;;;;;;;14.95;6.50;;;;;;;10.33;100.00;102474.91;4999796;28;20785;-77
2023/10/06 01:40:54;;;;;;;15.43;6.47;;;;;;;10.33;100.00;102480.13;5012223;28;20023;-77
2023/10/06 01:43:23;;;;;;;13.85;6.25;;;;;;;10.31;100.00;102476.66;5022042;28;20034;-77
2023/10/06 01:45:52;;;;;;;12.02;6.15;;;;;;;10.32;100.00;102461.00;5019626;28;20049;-77
2023/10/06 01:50:48;;;;;;;9.73;6.20;;;;;;;10.27;100.00;102462.75;5046768;28;20036;-77
2023/10/06 01:53:18;;;;;;;13.85;6.32;;;;;;;10.26;100.00;102462.72;5031281;28;20033;-77
2023/10/06 01:55:50;;;;;;;15.25;6.65;;;;;;;10.25;100.00;102459.22;5049055;28;20532;-77
2023/10/06 01:58:16;;;;;;;12.40;7.15;;;;;;;10.26;100.00;102457.50;5034928;28;20112;-77
2023/10/06 02:00:44;;;;;;;11.75;6.60;;;;;;;10.26;100.00;102449.69;5048928;28;20183;-77
2023/10/06 02:03:10;;;;;;;11.18;7.00;;;;;;;10.28;100.00;102445.38;5035303;28;20056;-77
2023/10/06 02:05:39;;;;;;;11.25;6.30;;;;;;;10.27;100.00;102444.50;5021035;28;20018;-77
2023/10/06 02:08:09;;;;;;;12.95;6.93;;;;;;;10.26;100.00;102447.94;5039057;28;20026;-77
2023/10/06 02:10:35;;;;;;;11.25;7.20;;;;;;;10.26;100.00;102452.28;5021169;28;20029;-77
2023/10/06 02:13:01;;;;;;;11.98;7.13;;;;;;;10.21;100.00;102452.25;5043092;28;20414;-77
2023/10/06 02:15:27;;;;;;;13.27;6.70;;;;;;;10.26;100.00;102460.97;5027477;28;20049;-77
2023/10/06 02:17:52;;;;;;;11.77;6.78;;;;;;;10.25;100.00;102459.22;5042875;28;20111;-77
2023/10/06 02:22:51;;;;;;;13.82;7.22;;;;;;;10.24;100.00;102470.53;5042984;28;20068;-77
2023/10/06 02:25:17;;;;;;;16.58;6.95;;;;;;;10.23;100.00;102458.31;5030449;28;20028;-77
2023/10/06 02:27:47;;;;;;;13.32;7.05;;;;;;;10.24;100.00;102460.09;5043575;28;20412;-77
2023/10/06 02:30:15;;;;;;;11.90;6.05;;;;;;;10.26;100.00;102450.56;5008979;28;20120;-77
2023/10/06 02:32:43;;;;;;;11.90;6.43;;;;;;;10.25;100.00;102453.13;5046592;28;20042;-77
2023/10/06 02:35:09;;;;;;;13.30;6.38;;;;;;;10.25;100.00;102455.75;5008029;28;20540;-77
2023/10/06 02:37:34;;;;;;;11.73;6.40;;;;;;;10.22;100.00;102455.72;5048488;28;20020;-77
2023/10/06 02:40:00;;;;;;;12.95;7.07;;;;;;;10.22;100.00;102458.34;5029205;28;20022;-77
2023/10/06 02:42:25;;;;;;;15.07;6.50;;;;;;;10.19;100.00;102459.19;5044536;28;20032;-77
2023/10/06 02:44:51;;;;;;;11.95;6.55;;;;;;;10.17;100.00;102453.13;5031402;28;20121;-77
2023/10/06 02:47:17;;;;;;;13.25;6.20;;;;;;;10.14;100.00;102447.03;5021327;28;20026;-77
2023/10/06 02:49:50;;;;;;;11.55;5.93;;;;;;;10.11;100.00;102442.66;5039552;28;20471;-77
2023/10/06 02:52:16;;;;;;;18.05;6.82;;;;;;;10.08;100.00;102443.53;5022240;28;20104;-77
2023/10/06 02:54:47;;;;;;;16.17;6.70;;;;;;;10.04;100.00;102444.38;5041858;28;20399;-77
2023/10/06 02:57:12;;;;;;;13.45;7.20;;;;;;;10.06;100.00;102444.38;5021867;28;20033;-77
2023/10/06 02:59:37;;;;;;;13.75;6.80;;;;;;;10.03;100.00;102445.22;5040438;28;20035;-77
2023/10/06 03:02:15;;;;;;;14.20;6.50;;;;;;;9.97;100.00;102433.91;5025467;28;20030;-77
2023/10/06 03:04:43;;;;;;;15.02;7.00;;;;;;;9.97;100.00;102442.63;5038858;28;20059;-77
2023/10/06 03:07:14;;;;;;;14.05;6.68;;;;;;;9.93;100.00;102425.22;5025871;28;20099;-77
2023/10/06 03:09:47;;;;;;;14.75;6.68;;;;;;;9.93;100.00;102433.03;5034097;28;20030;-77
2023/10/06 03:12:20;;;;;;;14.20;6.60;;;;;;;9.95;100.00;102433.91;5028164;28;20033;-77
2023/10/06 03:14:45;;;;;;;12.93;6.50;;;;;;;9.98;100.00;102430.44;5034717;28;20480;-77
2023/10/06 03:17:12;;;;;;;9.70;6.60;;;;;;;9.93;100.00;102414.78;5032701;28;20083;-77
2023/10/06 03:19:40;;;;;;;14.95;6.78;;;;;;;10.01;100.00;102433.06;5027061;28;20087;-77
2023/10/06 03:22:09;;;;;;;16.45;6.72;;;;;;;10.02;100.00;102430.47;5021365;28;20031;-77
2023/10/06 03:24:40;;;;;;;15.07;6.22;;;;;;;10.00;100.00;102418.28;5024773;28;20060;-77
2023/10/06 03:27:12;;;;;;;15.65;6.82;;;;;;;10.03;100.00;102419.16;5045985;28;20086;-77
2023/10/06 03:29:51;;;;;;;13.38;6.88;;;;;;;10.05;100.00;102427.00;5025400;28;20036;-77
2023/10/06 03:32:32;;;;;;;11.98;6.25;;;;;;;9.99;100.00;102417.41;5022079;28;20407;-77
2023/10/06 03:37:51;;;;;;;15.15;7.53;;;;;;;9.97;100.00;102431.28;5029314;28;20036;-77
2023/10/06 03:40:23;;;;;;;10.45;6.32;;;;;;;9.93;100.00;102427.81;5039742;28;20085;-77
2023/10/06 03:42:49;;;;;;;15.07;6.32;;;;;;;9.95;100.00;102430.44;5032806;28;20026;-77
2023/10/06 03:45:32;;;;;;;10.85;6.35;;;;;;;9.94;100.00;102433.88;5016369;28;20388;-77
2023/10/06 03:48:13;;;;;;;10.85;6.93;;;;;;;9.94;100.00;102436.50;5021375;28;20033;-77
2023/10/06 03:50:43;;;;;;;12.40;6.75;;;;;;;9.91;100.00;102423.44;5011171;28;20102;-77
2023/10/06 03:53:11;;;;;;;9.85;6.60;;;;;;;9.96;100.00;102422.63;5020338;28;20033;-77
2023/10/06 03:55:44;;;;;;;11.77;6.60;;;;;;;9.94;100.00;102426.97;5038335;28;20018;-77
2023/10/06 03:58:12;;;;;;;15.73;6.43;;;;;;;9.93;100.00;102420.00;5022349;28;20061;-77
2023/10/06 04:00:47;;;;;;;12.30;6.03;;;;;;;9.90;100.00;102412.16;5037866;28;20053;-77
2023/10/06 04:03:14;;;;;;;14.23;6.30;;;;;;;9.92;100.00;102407.84;5023382;28;20366;-77
2023/10/06 04:05:44;;;;;;;12.77;5.95;;;;;;;9.92;100.00;102401.75;5038623;28;20120;-77
2023/10/06 04:08:16;;;;;;;13.07;6.00;;;;;;;9.89;100.00;102402.63;5024487;28;20029;-77
2023/10/06 04:10:48;;;;;;;10.25;6.20;;;;;;;9.90;100.00;102412.16;5037540;28;20086;-77
2023/10/06 04:13:14;;;;;;;13.43;5.65;;;;;;;9.85;100.00;102393.06;5025427;28;20057;-77
2023/10/06 04:15:48;;;;;;;14.20;6.60;;;;;;;9.85;100.00;102393.91;5038866;28;20026;-77
2023/10/06 04:18:16;;;;;;;12.52;5.82;;;;;;;9.78;100.00;102384.34;5027124;28;20049;-77
2023/10/06 04:20:42;;;;;;;14.20;5.78;;;;;;;9.83;100.00;102399.97;5038509;28;20427;-77
2023/10/06 04:23:14;;;;;;;12.63;5.65;;;;;;;9.79;100.00;102399.09;5024585;28;20503;-77
2023/10/06 04:25:41;;;;;;;11.57;6.00;;;;;;;9.77;100.00;102406.03;5037523;28;20090;-77
2023/10/06 04:28:13;;;;;;;11.20;5.80;;;;;;;9.77;100.00;102416.44;5018261;28;20046;-77
2023/10/06 04:30:42;;;;;;;8.45;4.97;;;;;;;9.73;100.00;102419.03;5037977;28;20040;-77
2023/10/06 04:33:10;;;;;;;14.93;5.95;;;;;;;9.74;100.00;102425.97;5020552;28;20437;-77
2023/10/06 04:35:47;;;;;;;8.23;5.03;;;;;;;9.69;100.00;102414.69;5012946;28;20057;-77
2023/10/06 04:38:13;;;;;;;11.50;5.63;;;;;;;9.70;100.00;102426.84;5021630;28;20373;-77
2023/10/06 04:40:41;;;;;;;17.13;6.03;;;;;;;9.68;100.00;102412.91;5039727;28;20461;-77
2023/10/06 04:43:07;;;;;;;14.18;6.00;;;;;;;9.67;100.00;102413.78;5021809;28;20026;-77
2023/10/06 04:45:33;;;;;;;14.20;5.95;;;;;;;9.67;100.00;102408.59;5030591;28;20037;-77
2023/10/06 04:48:00;;;;;;;14.30;5.75;;;;;;;9.66;100.00;102399.03;5052064;28;20027;-77
2023/10/06 04:50:27;;;;;;;10.73;5.72;;;;;;;9.66;100.00;102393.84;5035311;28;20030;-77
2023/10/06 04:52:54;;;;;;;14.27;5.63;;;;;;;9.63;100.00;102402.50;5022502;28;20029;-77
2023/10/06 04:55:19;;;;;;;11.60;6.15;;;;;;;9.64;100.00;102393.81;5031589;28;20056;-77
2023/10/06 04:57:45;;;;;;;11.52;5.38;;;;;;;9.64;100.00;102392.94;5023328;28;20057;-77
2023/10/06 05:00:15;;;;;;;11.90;5.80;;;;;;;9.63;100.00;102394.69;5036857;28;20029;-77
2023/10/06 05:02:43;;;;;;;11.98;5.90;;;;;;;9.63;100.00;102388.59;5022259;28;20022;-77
2023/10/06 05:05:12;;;;;;;11.43;5.07;;;;;;;9.63;100.00;102389.47;5038512;28;20030;-77
2023/10/06 05:07:38;;;;;;;13.18;5.50;;;;;;;9.66;100.00;102386.88;5023051;28;20030;-77
2023/10/06 05:10:08;;;;;;;13.40;5.28;;;;;;;9.66;100.00;102392.09;5037218;28;20030;-77
2023/10/06 05:12:34;;;;;;;10.65;5.60;;;;;;;9.70;100.00;102398.19;5060584;28;20536;-77
2023/10/06 05:15:00;;;;;;;10.73;5.32;;;;;;;9.72;100.00;102386.06;5050928;28;20035;-77
2023/10/06 05:17:25;;;;;;;12.10;5.03;;;;;;;9.71;100.00;102392.09;5053029;28;20036;-77
2023/10/06 05:19:50;;;;;;;10.85;5.22;;;;;;;9.71;100.00;102379.97;5056685;28;20025;-77
2023/10/06 05:22:16;;;;;;;9.50;5.30;;;;;;;9.71;100.00;102384.28;5054799;28;20101;-77
2023/10/06 05:24:42;;;;;;;10.70;5.57;;;;;;;9.73;100.00;102385.19;5039114;28;20034;-77
2023/10/06 05:27:07;;;;;;;14.65;4.95;;;;;;;9.73;100.00;102387.78;5039213;28;20051;-77
2023/10/06 05:29:38;;;;;;;12.43;5.28;;;;;;;9.72;100.00;102384.31;5021725;28;20029;-77
2023/10/06 05:32:04;;;;;;;9.73;4.97;;;;;;;9.72;100.00;102386.91;5040683;28;20028;-77
2023/10/06 05:34:29;;;;;;;11.68;5.10;;;;;;;9.71;100.00;102394.72;5012086;28;20030;-77
2023/10/06 05:36:55;;;;;;;12.43;5.30;;;;;;;9.68;100.00;102395.59;5035573;28;20057;-77
2023/10/06 05:39:21;;;;;;;10.05;5.68;;;;;;;9.65;100.00;102392.09;5029239;28;20365;-77
2023/10/06 05:41:47;;;;;;;16.42;5.40;;;;;;;9.61;100.00;102384.28;5026646;28;20025;-77
2023/10/06 05:44:12;;;;;;;12.73;5.70;;;;;;;9.60;100.00;102385.13;5041123;28;20019;-77
2023/10/06 05:46:38;;;;;;;8.00;4.93;;;;;;;9.60;100.00;102389.44;5026057;28;20036;-77
2023/10/06 05:49:04;;;;;;;15.45;5.28;;;;;;;9.58;100.00;102398.97;5033801;28;20075;-77
2023/10/06 05:51:33;;;;;;;12.40;5.07;;;;;;;9.58;100.00;102384.25;5047779;28;20028;-77
2023/10/06 05:53:58;;;;;;;12.05;5.65;;;;;;;9.59;100.00;102401.59;5027007;28;20108;-77
2023/10/06 05:56:26;;;;;;;13.73;5.68;;;;;;;9.60;100.00;102387.72;5057263;28;20367;-77
2023/10/06 05:58:52;;;;;;;13.27;5.63;;;;;;;9.61;100.00;102399.91;5023673;28;20545;-77
2023/10/06 06:01:21;;;;;;;13.73;5.85;;;;;;;9.64;100.00;102396.41;5057533;28;20030;-77
2023/10/06 06:03:46;;;;;;;10.85;5.45;;;;;;;9.64;100.00;102403.34;5019696;28;20034;-77
2023/10/06 06:06:15;;;;;;;8.77;5.80;;;;;;;9.61;100.00;102399.00;5024803;28;20373;-77
2023/10/06 06:08:46;;;;;;;12.95;5.20;;;;;;;9.65;100.00;102392.09;5028406;28;20432;-77
2023/10/06 06:11:12;;;;;;;11.65;5.95;;;;;;;9.65;100.00;102389.50;5023350;28;20092;-77
2023/10/06 06:13:38;;;;;;;15.75;5.90;;;;;;;9.72;100.00;102393.88;5035065;28;20099;-77
2023/10/06 06:16:05;;;;;;;10.02;5.82;;;;;;;9.77;100.00;102399.94;5021552;28;20021;-77
2023/10/06 06:18:31;;;;;;;10.38;5.90;;;;;;;9.80;100.00;102386.94;5038738;28;20028;-77
2023/10/06 06:20:56;;;;;;;12.52;5.78;;;;;;;9.90;100.00;102400.88;5019168;28;20025;-77
2023/10/06 06:23:21;;;;;;;11.48;6.60;;;;;;;9.98;100.00;102401.78;5038306;28;20510;-77
2023/10/06 06:25:46;;;;;;;11.32;6.32;;;;;;;10.02;100.00;102401.81;5021909;28;20030;-77
2023/10/06 06:28:13;;;;;;;10.50;5.57;;;;;;;10.07;100.00;102405.31;5037767;28;20571;-77
2023/10/06 06:30:39;;;;;;;12.80;5.97;;;;;;;10.12;100.00;102410.53;5022872;28;20082;-77
2023/10/06 06:33:07;;;;;;;12.52;5.95;;;;;;;10.14;100.00;102413.16;5039613;28;20358;-77
2023/10/06 06:35:34;;;;;;;11.27;6.50;;;;;;;10.14;100.00;102402.72;5013698;28;20036;-77
2023/10/06 06:38:01;;;;;;;13.85;5.85;;;;;;;10.19;100.00;102409.66;5039880;28;20053;-77
2023/10/06 06:40:28;;;;;;;12.20;5.90;;;;;;;10.25;100.00;102411.44;5026043;28;20037;-77
2023/10/06 06:42:55;;;;;;;14.75;6.32;;;;;;;10.28;100.00;102406.25;5037585;28;20105;-76
2023/10/06 06:45:24;;;;;;;12.27;5.53;;;;;;;10.31;100.00;102408.88;5022917;28;20565;-77
2023/10/06 06:47:50;;;;;;;12.52;5.57;;;;;;;10.34;100.00;102410.63;5030877;28;20491;-77
2023/10/06 06:50:17;;;;;;;14.38;5.57;;;;;;;10.37;100.00;102414.13;5009741;28;20029;-77
2023/10/06 06:52:43;;;;;;;10.32;5.28;;;;;;;10.43;100.00;102414.13;5036741;28;20446;-77
2023/10/06 06:55:15;;;;;;;12.18;5.75;;;;;;;10.43;100.00;102413.22;5050610;28;20033;-77
2023/10/06 06:57:50;;;;;;;10.00;5.32;;;;;;;10.45;100.00;102406.31;5037805;28;20068;-77
2023/10/06 07:00:21;;;;;;;9.25;5.40;;;;;;;10.51;100.00;102406.31;5052716;28;20037;-77
2023/10/06 07:02:50;;;;;;;10.98;5.63;;;;;;;10.49;100.00;102403.69;5037908;28;20025;-77
2023/10/06 07:05:17;;;;;;;10.27;5.38;;;;;;;10.55;100.00;102408.91;5021316;28;20030;-77
2023/10/06 07:07:43;;;;;;;10.35;4.95;;;;;;;10.58;100.00;102399.38;5038844;28;20038;-77
2023/10/06 07:10:20;;;;;;;12.18;5.55;;;;;;;10.61;100.00;102401.97;5021257;28;20425;-77
2023/10/06 07:12:49;;;;;;;10.65;4.72;;;;;;;10.65;100.00;102403.72;5011766;28;20430;-77
2023/10/06 07:15:16;;;;;;;12.10;5.25;;;;;;;10.69;100.00;102402.84;5022447;28;20025;-77
2023/10/06 07:17:50;;;;;;;9.55;5.18;;;;;;;10.75;100.00;102411.53;5038749;28;20030;-77
2023/10/06 07:20:20;;;;;;;11.38;5.50;;;;;;;10.79;100.00;102399.41;5024015;28;20022;-77
2023/10/06 07:22:47;;;;;;;11.82;5.05;;;;;;;10.80;100.00;102395.91;5040364;28;20041;-77
2023/10/06 07:25:15;;;;;;;11.13;5.32;;;;;;;10.88;100.00;102407.22;5025274;28;20108;-77
2023/10/06 07:27:42;;;;;;;9.15;4.93;;;;;;;10.94;100.00;102402.00;5038928;28;20126;-77
2023/10/06 07:30:10;;;;;;;10.25;4.80;;;;;;;11.03;100.00;102401.13;5025662;28;20030;-77
2023/10/06 07:32:41;;;;;;;10.10;5.15;;;;;;;11.10;100.00;102395.03;5039526;28;20033;-77
2023/10/06 07:35:09;;;;;;;9.88;4.82;;;;;;;11.15;100.00;102395.91;5019219;28;20056;-77
2023/10/06 07:37:36;;;;;;;11.85;4.90;;;;;;;11.25;100.00;102402.84;5040493;28;20104;-77
2023/10/06 07:40:04;;;;;;;15.48;5.00;;;;;;;11.29;100.00;102398.50;5027032;28;20037;-77
2023/10/06 07:42:29;;;;;;;12.80;5.45;;;;;;;11.39;100.00;102408.03;5043378;28;20029;-77
2023/10/06 07:44:55;;;;;;;12.25;5.00;;;;;;;11.45;100.00;102412.41;5021276;28;20029;-77
2023/10/06 07:47:24;;;;;;;10.00;4.90;;;;;;;11.53;100.00;102412.38;5034570;28;20042;-77
2023/10/06 07:49:50;;;;;;;12.10;4.88;;;;;;;11.62;100.00;102418.44;5049191;28;20048;-77
2023/10/06 07:52:17;;;;;;;14.95;5.05;;;;;;;11.69;100.00;102430.59;5033616;28;20437;-77
2023/10/06 07:54:43;;;;;;;13.10;5.20;;;;;;;11.75;100.00;102426.25;5051998;28;20035;-77
2023/10/06 07:57:10;;;;;;;10.98;5.15;;;;;;;11.85;100.00;102436.69;5033316;28;20018;-77
2023/10/06 07:59:36;;;;;;;10.20;4.57;;;;;;;11.94;100.00;102439.28;5049242;28;20479;-77
2023/10/06 08:02:01;;;;;;;9.80;5.70;;;;;;;12.04;100.00;102444.47;5035933;28;20025;-77
2023/10/06 08:04:27;;;;;;;10.32;4.93;;;;;;;12.11;100.00;102449.66;5041231;28;20041;-77
2023/10/06 08:06:52;;;;;;;10.65;4.50;;;;;;;12.21;100.00;102434.81;5047938;28;20030;-77
2023/10/06 08:09:19;;;;;;;12.27;4.63;;;;;;;12.33;100.00;102429.53;5020668;28;20036;-78
2023/10/06 08:11:45;;;;;;;11.50;4.78;;;;;;;12.48;100.00;102423.31;5039504;28;20020;-77
2023/10/06 08:14:13;;;;;;;8.40;4.55;;;;;;;12.57;100.00;102417.16;5019742;28;20030;-77
2023/10/06 08:16:39;;;;;;;10.38;5.00;;;;;;;12.78;100.00;102417.00;5038956;28;20036;-77
2023/10/06 08:19:05;;;;;;;8.88;4.78;;;;;;;12.96;100.00;102418.63;5022513;28;20075;-77
2023/10/06 08:21:31;;;;;;;11.80;5.82;;;;;;;13.13;100.00;102403.63;5029638;28;20026;-77
2023/10/06 08:23:56;;;;;;;12.63;4.90;;;;;;;13.42;100.00;102410.38;5033559;28;20030;-77
2023/10/06 08:26:21;;;;;;;9.63;4.75;;;;;;;13.60;100.00;102414.53;5023528;28;20045;-77
2023/10/06 08:28:47;;;;;;;8.07;4.43;;;;;;;13.81;100.00;102427.41;5042271;28;20029;-76
2023/10/06 08:31:16;;;;;;;11.38;4.53;;;;;;;13.95;100.00;102419.34;5011335;28;20018;-78
2023/10/06 08:33:42;;;;;;;8.45;4.03;;;;;;;14.12;100.00;102428.78;5021323;28;20500;-77
2023/10/06 08:36:10;;;;;;;13.18;4.68;;;;;;;14.19;100.00;102430.41;5024276;28;20426;-77
2023/10/06 08:38:37;;;;;;;13.85;4.70;;;;;;;14.26;100.00;102424.22;5025012;28;20691;-77
2023/10/06 08:41:03;;;;;;;12.68;4.32;;;;;;;14.40;100.00;102434.53;5040229;28;20057;-77
2023/10/06 08:43:29;;;;;;;11.20;4.53;;;;;;;14.50;100.00;102423.91;5022955;28;20030;-77
2023/10/06 08:45:59;;;;;;;11.27;4.28;;;;;;;14.66;100.00;102421.06;5041162;28;20109;-77
2023/10/06 08:48:30;;;;;;;10.10;5.05;;;;;;;14.87;100.00;102425.09;5026501;28;20385;-77
2023/10/06 08:50:58;;;;;;;8.68;4.15;;;;;;;15.07;100.00;102419.50;5050473;28;20026;-77
2023/10/06 08:53:25;;;;;;;15.52;4.90;;;;;;;15.19;100.00;102419.28;5025599;28;20028;-77
2023/10/06 08:55:50;;;;;;;9.10;4.35;;;;;;;15.32;100.00;102414.69;5048739;28;20037;-78
2023/10/06 08:58:17;;;;;;;10.18;4.70;;;;;;;15.41;100.00;102422.41;5035769;28;20362;-78
2023/10/06 09:00:43;;;;;;;8.27;4.38;;;;;;;15.52;100.00;102420.44;5050468;28;20563;-77
2023/10/06 09:03:11;;;;;;;16.63;5.45;;;;;;;15.54;100.00;102412.53;5034777;28;20109;-78
2023/10/06 09:05:41;;;;;;;10.10;4.70;;;;;;;15.50;100.00;102427.50;5019831;28;20033;-77
2023/10/06 09:08:11;;;;;;;15.77;4.45;;;;;;;15.39;100.00;102419.78;5036321;28;20078;-77
2023/10/06 09:10:48;;;;;;;10.23;4.60;;;;;;;15.41;100.00;102425.91;5010675;28;20025;-77
2023/10/06 09:13:17;;;;;;;10.77;4.32;;;;;;;15.51;100.00;102423.97;5036919;28;20057;-77
2023/10/06 09:15:54;;;;;;;13.02;4.68;;;;;;;15.58;100.00;102432.59;5018653;28;20021;-77
2023/10/06 09:18:27;;;;;;;13.55;4.82;;;;;;;15.62;100.00;102427.25;5038302;28;20034;-78
2023/10/06 09:20:54;;;;;;;11.88;4.47;;;;;;;15.61;100.00;102436.03;5012532;28;20116;-77
2023/10/06 09:23:34;;;;;;;14.38;4.55;;;;;;;15.57;100.00;102426.47;5037536;28;20029;-78
2023/10/06 09:26:01;;;;;;;11.38;4.88;;;;;;;15.60;100.00;102422.94;5000721;28;20055;-77
2023/10/06 09:28:27;;;;;;;11.75;4.90;;;;;;;15.72;100.00;102427.09;5039020;28;20455;-77
2023/10/06 09:30:57;;;;;;;8.90;4.18;;;;;;;15.82;100.00;102402.34;5021641;28;20492;-78
2023/10/06 09:33:28;;;;;;;11.45;4.68;;;;;;;16.03;100.00;102416.84;5040434;28;20030;-78
2023/10/06 09:36:07;;;;;;;8.88;4.95;;;;;;;16.18;100.00;102405.09;5017676;28;20358;-77
2023/10/06 09:38:33;;;;;;;12.23;4.70;;;;;;;16.23;100.00;102397.97;5039775;28;20496;-77
2023/10/06 09:40:58;;;;;;;8.23;4.57;;;;;;;16.31;100.00;102388.13;5024372;28;20734;-77
2023/10/06 09:43:25;;;;;;;11.20;4.85;;;;;;;16.34;100.00;102399.44;5041208;28;20083;-77
2023/10/06 09:45:51;;;;;;;9.68;4.30;;;;;;;16.36;100.00;102399.44;5023895;28;20109;-77
2023/10/06 09:48:24;;;;;;;14.05;4.47;;;;;;;16.35;100.00;102385.41;5031254;28;20044;-78
2023/10/06 09:50:54;;;;;;;10.50;4.25;;;;;;;16.41;100.00;102400.19;5047445;28;20025;-78
2023/10/06 09:53:20;;;;;;;13.43;4.60;;;;;;;16.47;100.00;102386.88;5018437;28;20056;-77
2023/10/06 09:55:49;;;;;;;10.40;4.80;;;;;;;16.58;100.00;102397.19;5049321;28;20349;-77
2023/10/06 09:58:17;;;;;;;11.00;4.22;;;;;;;16.61;100.00;102395.34;5034004;28;20033;-77
2023/10/06 10:00:43;;;;;;;8.63;3.83;;;;;;;16.61;100.00;102394.44;5050182;28;20388;-78
2023/10/06 10:03:12;;;;;;;11.10;4.22;;;;;;;16.50;100.00;102388.56;5035053;28;20056;-77
2023/10/06 10:05:38;;;;;;;11.10;4.20;;;;;;;16.49;100.00;102398.25;5018824;28;20028;-78
2023/10/06 10:08:06;;;;;;;5.38;3.38;;;;;;;16.49;100.00;102392.13;5035341;28;20029;-78
2023/10/06 10:10:34;;;;;;;8.77;3.80;;;;;;;16.53;100.00;102386.75;5018753;28;20053;-78
2023/10/06 10:13:35;;;;;;;11.32;4.40;;;;;;;16.51;100.00;102385.94;5035172;28;20090;-77
2023/10/06 10:16:25;;;;;;;7.20;3.67;;;;;;;16.54;100.00;102382.34;5015118;28;20426;-77
2023/10/06 10:19:04;;;;;;;10.82;4.10;;;;;;;16.53;100.00;102392.00;5006633;28;20037;-77
2023/10/06 10:21:34;;;;;;;9.18;3.90;;;;;;;16.47;100.00;102394.78;5027469;28;20029;-77
2023/10/06 10:24:07;;;;;;;9.38;3.92;;;;;;;16.51;100.00;102403.47;5029440;28;20026;-77
2023/10/06 10:26:35;;;;;;;;;;;;;;;16.63;100.00;102388.25;5028200;28;20045;-77
2023/10/06 10:29:12;;;;;;;10.75;3.90;;;;;;;16.65;100.00;102390.00;5037754;28;19917;-77
2023/10/06 10:31:38;;;;;;;10.57;4.82;;;;;;;16.61;100.00;102395.34;5030164;28;20029;-77
2023/10/06 10:34:07;;;;;;;5.78;3.75;;;;;;;16.67;100.00;102381.13;5032139;28;20038;-77
2023/10/06 10:36:32;;;;;;;8.40;3.40;;;;;;;16.80;100.00;102373.81;5022714;28;20112;-77
2023/10/06 10:39:18;;;;;;;8.25;3.70;;;;;;;17.07;100.00;102375.78;5045795;28;20061;-78
2023/10/06 10:41:45;;;;;;;11.13;4.40;;;;;;;17.23;100.00;102383.25;5026977;28;20030;-78
2023/10/06 10:44:12;;;;;;;9.07;3.92;;;;;;;17.43;100.00;102380.97;5045373;28;20403;-77
2023/10/06 10:46:42;;;;;;;6.75;3.80;;;;;;;17.58;100.00;102369.09;5029825;28;20037;-77
2023/10/06 10:49:13;;;;;;;6.47;3.63;;;;;;;17.55;100.00;102370.03;5039780;28;20109;-78
2023/10/06 10:51:55;;;;;;;9.18;4.20;;;;;;;17.63;100.00;102347.88;5045313;28;20098;-78
2023/10/06 10:54:28;;;;;;;10.70;4.80;;;;;;;17.57;100.00;102370.00;5037677;28;20099;-77
2023/10/06 10:57:01;;;;;;;8.43;4.28;;;;;;;17.65;100.00;102364.50;5039152;28;20469;-78
2023/10/06 11:02:48;;;;;;;8.85;3.80;;;;;;;17.95;100.00;102362.75;5010722;28;20033;-78
2023/10/06 11:05:18;;;;;;;6.32;4.00;;;;;;;18.07;100.00;102365.03;5020616;28;20034;-77
2023/10/06 11:08:05;;;;;;;12.57;4.90;;;;;;;18.21;100.00;102373.41;5038634;28;20036;-78
2023/10/06 11:10:32;;;;;;;8.75;4.18;;;;;;;18.14;100.00;102363.94;5021332;28;20033;-78
2023/10/06 11:13:20;;;;;;;8.68;4.50;;;;;;;18.24;100.00;102368.00;5039022;28;20026;-78
2023/10/06 11:15:48;;;;;;;8.68;4.25;;;;;;;18.27;100.00;102369.69;5013656;28;20030;-78
2023/10/06 11:18:17;;;;;;;11.52;4.93;;;;;;;18.29;100.00;102367.88;5040004;28;20013;-78
2023/10/06 11:20:43;;;;;;;10.23;4.22;;;;;;;18.26;100.00;102365.34;5023255;28;20030;-77
2023/10/06 11:23:09;;;;;;;10.55;4.22;;;;;;;18.18;100.00;102367.34;5039026;28;20029;-77
2023/10/06 11:25:36;;;;;;;10.65;4.28;;;;;;;18.16;100.00;102358.63;5038160;28;20068;-78
2023/10/06 11:28:04;;;;;;;8.77;4.63;;;;;;;18.16;100.00;102361.25;5056973;28;20045;-78
2023/10/06 11:30:34;;;;;;;9.88;4.40;;;;;;;18.23;100.00;102362.78;5024445;28;20029;-78
2023/10/06 11:33:02;;;;;;;7.75;3.80;;;;;;;18.30;100.00;102359.03;5010212;28;20022;-78